createdAt,value
2018-02-16T00:00:53.949Z,95907.33
2018-02-16T00:03:22.261Z,95899.47
2018-02-16T00:05:50.606Z,95904.30
2018-02-16T00:08:18.931Z,95904.30
2018-02-16T00:10:47.293Z,95908.08
2018-02-16T00:13:15.616Z,95906.86
2018-02-16T00:15:43.998Z,95902.98
2018-02-16T00:18:12.323Z,95910.41
2018-02-16T00:20:40.677Z,95906.77
2018-02-16T00:23:08.994Z,95913.58
2018-02-16T00:25:37.352Z,95907.47
2018-02-16T00:28:05.666Z,95917.13
2018-02-16T00:30:34.046Z,95913.68
2018-02-16T00:33:02.380Z,95928.09
2018-02-16T00:35:30.698Z,95920.41
2018-02-16T00:37:59.258Z,95921.42
2018-02-16T00:40:27.569Z,95934.03
2018-02-16T00:42:55.911Z,95930.92
2018-02-16T00:45:24.243Z,95938.17
2018-02-16T00:47:52.595Z,95937.30
2018-02-16T00:50:20.927Z,95933.64
2018-02-16T00:52:49.263Z,95942.33
2018-02-16T00:55:17.589Z,95941.05
2018-02-16T00:57:46.003Z,95941.89
2018-02-16T01:00:14.328Z,95940.70
2018-02-16T01:02:42.666Z,95942.71
2018-02-16T01:05:10.995Z,95941.38
2018-02-16T01:07:39.330Z,95942.23
2018-02-16T01:10:07.681Z,95949.47
2018-02-16T01:12:36.032Z,95945.67
2018-02-16T01:15:04.378Z,95947.55
2018-02-16T01:17:32.705Z,95944.63
2018-02-16T01:20:01.069Z,95945.08
2018-02-16T01:22:29.399Z,95946.06
2018-02-16T01:24:57.749Z,95944.69
2018-02-16T01:27:26.076Z,95944.89
2018-02-16T01:29:54.402Z,95949.27
2018-02-16T01:32:22.762Z,95950.25
2018-02-16T01:34:51.083Z,95945.91
2018-02-16T01:37:19.430Z,95952.44
2018-02-16T01:39:47.752Z,95955.50
2018-02-16T01:42:16.099Z,95959.29
2018-02-16T01:44:44.456Z,95949.92
2018-02-16T01:47:12.804Z,95953.41
2018-02-16T01:49:52.838Z,95954.31
2018-02-16T01:52:21.285Z,95958.30
2018-02-16T01:54:49.627Z,95963.55
2018-02-16T01:57:17.949Z,95969.25
2018-02-16T01:59:46.336Z,95981.44
2018-02-16T02:02:14.663Z,95983.13
2018-02-16T02:04:43.067Z,95973.42
2018-02-16T02:07:11.399Z,95970.34
2018-02-16T02:09:39.759Z,95967.06
2018-02-16T02:12:08.140Z,95971.05
2018-02-16T02:14:36.455Z,95970.38
2018-02-16T02:17:04.846Z,95975.34
2018-02-16T02:19:33.174Z,95991.19
2018-02-16T02:22:01.522Z,95984.56
2018-02-16T02:24:29.846Z,95988.88
2018-02-16T02:26:58.306Z,95993.44
2018-02-16T02:29:26.624Z,95989.62
2018-02-16T02:31:55.006Z,95990.77
2018-02-16T02:34:23.340Z,95992.71
2018-02-16T02:36:51.659Z,95985.80
2018-02-16T02:39:20.021Z,95992.09
2018-02-16T02:41:48.343Z,95987.38
2018-02-16T02:44:16.687Z,95996.95
2018-02-16T02:46:45.019Z,95997.42
2018-02-16T02:49:13.378Z,96005.29
2018-02-16T02:51:41.703Z,96003.55
2018-02-16T02:54:10.023Z,96011.66
2018-02-16T02:56:38.363Z,96016.64
2018-02-16T02:59:06.694Z,96027.68
2018-02-16T03:01:35.054Z,96028.06
2018-02-16T03:04:03.388Z,96030.90
2018-02-16T03:06:32.633Z,96029.44
2018-02-16T03:09:00.959Z,96032.55
2018-02-16T03:11:29.299Z,96039.42
2018-02-16T03:13:57.636Z,96040.19
2018-02-16T03:16:26.041Z,96046.96
2018-02-16T03:18:54.375Z,96059.50
2018-02-16T03:21:22.695Z,96068.05
2018-02-16T03:23:51.063Z,96071.13
2018-02-16T03:26:19.406Z,96087.75
2018-02-16T03:28:47.766Z,96095.74
2018-02-16T03:31:16.083Z,96108.06
2018-02-16T03:33:44.422Z,96101.55
2018-02-16T03:36:12.747Z,96110.02
2018-02-16T03:38:41.122Z,96116.13
2018-02-16T03:41:09.463Z,96123.92
2018-02-16T03:43:37.768Z,96124.22
2018-02-16T03:46:06.129Z,96134.38
2018-02-16T03:48:34.463Z,96136.25
2018-02-16T03:51:02.822Z,96142.09
2018-02-16T03:53:31.147Z,96146.70
2018-02-16T03:55:59.507Z,96155.10
2018-02-16T03:58:27.831Z,96153.78
2018-02-16T04:00:56.185Z,96159.89
2018-02-16T04:03:24.516Z,96164.69
2018-02-16T04:05:52.901Z,96165.55
2018-02-16T04:08:21.221Z,96175.14
2018-02-16T04:10:49.543Z,96179.12
2018-02-16T04:13:17.898Z,96180.69
2018-02-16T04:15:46.254Z,96182.79
2018-02-16T04:18:14.604Z,96183.05
2018-02-16T04:20:42.945Z,96184.89
2018-02-16T04:23:11.274Z,96185.79
2018-02-16T04:25:39.618Z,96186.02
2018-02-16T04:28:08.001Z,96193.58
2018-02-16T04:30:36.329Z,96204.34
2018-02-16T04:33:04.717Z,96202.61
2018-02-16T04:35:33.048Z,96208.42
2018-02-16T04:38:01.364Z,96214.08
2018-02-16T04:40:29.770Z,96216.17
2018-02-16T04:42:58.095Z,96215.77
2018-02-16T04:45:26.499Z,96216.59
2018-02-16T04:47:54.787Z,96208.16
2018-02-16T04:50:23.134Z,96207.14
2018-02-16T04:52:51.450Z,96214.80
2018-02-16T04:55:19.806Z,96216.11
2018-02-16T04:57:48.132Z,96226.15
2018-02-16T05:00:16.498Z,96226.15
2018-02-16T05:02:44.842Z,96224.84
2018-02-16T05:05:13.170Z,96234.53
2018-02-16T05:07:41.549Z,96246.23
2018-02-16T05:10:09.920Z,96243.57
2018-02-16T05:12:38.259Z,96247.44
2018-02-16T05:15:06.585Z,96248.78
2018-02-16T05:17:34.943Z,96254.25
2018-02-16T05:20:03.267Z,96264.34
2018-02-16T05:22:31.622Z,96272.55
2018-02-16T05:24:59.948Z,96282.18
2018-02-16T05:27:28.319Z,96284.56
2018-02-16T05:29:56.631Z,96293.19
2018-02-16T05:32:24.958Z,96295.47
2018-02-16T05:34:53.302Z,96295.39
2018-02-16T05:37:21.632Z,96303.27
2018-02-16T05:39:49.986Z,96291.27
2018-02-16T05:42:18.315Z,96303.30
2018-02-16T05:44:46.673Z,96304.27
2018-02-16T05:47:15.004Z,96308.33
2018-02-16T05:49:43.321Z,96314.34
2018-02-16T05:52:11.677Z,96318.78
2018-02-16T05:54:40.015Z,96318.90
2018-02-16T05:57:08.357Z,96316.05
2018-02-16T05:59:36.687Z,96322.94
2018-02-16T06:02:05.045Z,96330.20
2018-02-16T06:04:33.367Z,96337.22
2018-02-16T06:07:01.742Z,96359.56
2018-02-16T06:09:30.082Z,96366.11
2018-02-16T06:11:58.402Z,96352.71
2018-02-16T06:14:26.752Z,96355.08
2018-02-16T06:16:55.084Z,96364.90
2018-02-16T06:19:23.430Z,96373.51
2018-02-16T06:21:51.764Z,96374.84
2018-02-16T06:24:20.126Z,96380.55
2018-02-16T06:26:48.462Z,96384.14
2018-02-16T06:29:16.804Z,96386.22
2018-02-16T06:31:45.997Z,96380.87
2018-02-16T06:34:14.333Z,96385.27
2018-02-16T06:36:42.671Z,96386.55
2018-02-16T06:39:11.075Z,96386.16
2018-02-16T06:41:39.415Z,96392.02
2018-02-16T06:44:07.739Z,96399.52
2018-02-16T06:46:36.079Z,96405.06
2018-02-16T06:49:04.469Z,96409.13
2018-02-16T06:51:32.896Z,96409.55
2018-02-16T06:54:01.235Z,96419.79
2018-02-16T06:56:29.576Z,96437.64
2018-02-16T06:58:57.901Z,96441.95
2018-02-16T07:01:26.248Z,96442.53
2018-02-16T07:03:54.566Z,96437.59
2018-02-16T07:06:22.922Z,96456.23
2018-02-16T07:08:51.249Z,96464.13
2018-02-16T07:11:19.604Z,96454.03
2018-02-16T07:13:47.939Z,96462.23
2018-02-16T07:16:16.321Z,96476.77
2018-02-16T07:18:44.647Z,96485.70
2018-02-16T07:21:12.970Z,96480.11
2018-02-16T07:23:41.311Z,96485.16
2018-02-16T07:26:09.638Z,96493.23
2018-02-16T07:28:37.982Z,96494.54
2018-02-16T07:31:06.754Z,96486.53
2018-02-16T07:33:35.095Z,96488.10
2018-02-16T07:36:03.421Z,96488.80
2018-02-16T07:38:32.042Z,96476.88
2018-02-16T07:41:00.354Z,96481.33
2018-02-16T07:43:28.684Z,96483.86
2018-02-16T07:45:57.003Z,96493.55
2018-02-16T07:48:25.721Z,96499.53
2018-02-16T07:50:54.037Z,96501.48
2018-02-16T07:53:22.337Z,96508.73
2018-02-16T07:55:50.682Z,96510.87
2018-02-16T07:58:18.985Z,96506.69
2018-02-16T08:00:47.327Z,96509.65
2018-02-16T08:03:15.633Z,96510.55
2018-02-16T08:05:43.957Z,96521.68
2018-02-16T08:08:12.267Z,96525.36
2018-02-16T08:10:40.619Z,96526.83
2018-02-16T08:13:08.934Z,96522.02
2018-02-16T08:15:37.292Z,96521.44
2018-02-16T08:18:05.602Z,96526.99
2018-02-16T08:20:33.946Z,96524.13
2018-02-16T08:23:02.250Z,96525.33
2018-02-16T08:25:30.589Z,96525.91
2018-02-16T08:27:58.906Z,96534.61
2018-02-16T08:30:27.215Z,96542.77
2018-02-16T08:32:55.552Z,96546.75
2018-02-16T08:35:23.877Z,96546.59
2018-02-16T08:37:52.202Z,96548.44
2018-02-16T08:40:20.505Z,96551.99
2018-02-16T08:42:48.835Z,96552.80
2018-02-16T08:45:17.150Z,96557.95
2018-02-16T08:47:45.475Z,96551.04
2018-02-16T08:50:13.843Z,96551.11
2018-02-16T08:52:42.209Z,96556.07
2018-02-16T08:55:10.522Z,96557.56
2018-02-16T08:57:38.822Z,96561.72
2018-02-16T09:00:07.151Z,96581.17
2018-02-16T09:02:35.471Z,96576.48
2018-02-16T09:05:03.839Z,96575.34
2018-02-16T09:07:32.146Z,96579.45
2018-02-16T09:10:00.482Z,96581.52
2018-02-16T09:12:28.877Z,96582.56
2018-02-16T09:14:57.216Z,96575.95
2018-02-16T09:17:25.552Z,96581.30
2018-02-16T09:19:53.883Z,96583.86
2018-02-16T09:22:22.199Z,96584.69
2018-02-16T09:24:50.549Z,96582.95
2018-02-16T09:27:18.857Z,96590.16
2018-02-16T09:29:47.203Z,96594.94
2018-02-16T09:32:15.510Z,96590.66
2018-02-16T09:34:43.814Z,96605.17
2018-02-16T09:37:12.893Z,96599.84
2018-02-16T09:39:42.162Z,96588.28
2018-02-16T09:42:10.498Z,96585.10
2018-02-16T09:44:38.800Z,96596.02
2018-02-16T09:47:07.131Z,96594.77
2018-02-16T09:49:35.441Z,96588.95
2018-02-16T09:52:03.762Z,96586.66
2018-02-16T09:54:32.117Z,96589.74
2018-02-16T09:57:00.441Z,96599.59
2018-02-16T09:59:28.743Z,96606.05
2018-02-16T10:01:57.086Z,96610.94
2018-02-16T10:04:25.393Z,96615.73
2018-02-16T10:06:53.721Z,96617.20
2018-02-16T10:09:22.042Z,96616.02
2018-02-16T10:11:50.355Z,96621.06
2018-02-16T10:14:18.679Z,96621.78
2018-02-16T10:16:47.003Z,96621.97
2018-02-16T10:19:15.458Z,96622.73
2018-02-16T10:21:43.784Z,96632.60
2018-02-16T10:24:12.129Z,96629.98
2018-02-16T10:26:40.418Z,96634.38
2018-02-16T10:29:08.746Z,96642.95
2018-02-16T10:31:37.077Z,96641.27
2018-02-16T10:34:05.423Z,96649.94
2018-02-16T10:36:33.729Z,96641.63
2018-02-16T10:39:02.040Z,96639.69
2018-02-16T10:41:30.399Z,96640.57
2018-02-16T10:43:58.711Z,96629.78
2018-02-16T10:46:27.035Z,96633.92
2018-02-16T10:48:55.344Z,96638.70
2018-02-16T10:51:23.679Z,96642.77
2018-02-16T10:53:51.991Z,96642.13
2018-02-16T10:56:20.458Z,96638.13
2018-02-16T10:58:48.778Z,96635.88
2018-02-16T11:01:19.052Z,96638.84
2018-02-16T11:03:52.939Z,96646.53
2018-02-16T11:06:26.922Z,96644.97
2018-02-16T11:09:00.918Z,96646.50
2018-02-16T11:11:29.252Z,96648.52
2018-02-16T11:13:57.554Z,96648.83
2018-02-16T11:16:25.932Z,96652.94
2018-02-16T11:18:54.252Z,96654.35
2018-02-16T11:21:22.582Z,96660.63
2018-02-16T11:23:50.966Z,96656.31
2018-02-16T11:26:19.244Z,96652.16
2018-02-16T11:28:47.614Z,96658.53
2018-02-16T11:31:15.942Z,96662.27
2018-02-16T11:33:44.279Z,96665.80
2018-02-16T11:36:12.633Z,96661.99
2018-02-16T11:38:40.997Z,96647.37
2018-02-16T11:41:09.300Z,96653.25
2018-02-16T11:43:37.643Z,96656.30
2018-02-16T11:46:05.959Z,96660.01
2018-02-16T11:48:34.250Z,96658.51
2018-02-16T11:51:02.598Z,96656.86
2018-02-16T11:53:30.920Z,96660.23
2018-02-16T11:55:59.558Z,96661.47
2018-02-16T11:58:27.894Z,96665.63
2018-02-16T12:00:56.216Z,96660.27
2018-02-16T12:03:24.532Z,96660.17
2018-02-16T12:05:52.873Z,96665.84
2018-02-16T12:08:21.177Z,96668.03
2018-02-16T12:10:49.539Z,96664.50
2018-02-16T12:13:17.854Z,96665.94
2018-02-16T12:15:46.219Z,96663.68
2018-02-16T12:18:14.533Z,96658.56
2018-02-16T12:20:42.917Z,96657.73
2018-02-16T12:23:11.246Z,96656.88
2018-02-16T12:25:39.560Z,96658.14
2018-02-16T12:28:07.908Z,96657.11
2018-02-16T12:30:36.227Z,96653.35
2018-02-16T12:33:04.550Z,96651.59
2018-02-16T12:35:32.892Z,96653.54
2018-02-16T12:38:01.274Z,96651.40
2018-02-16T12:40:29.594Z,96651.98
2018-02-16T12:42:57.982Z,96653.10
2018-02-16T12:45:26.290Z,96645.20
2018-02-16T12:47:54.683Z,96639.31
2018-02-16T12:50:22.975Z,96636.34
2018-02-16T12:52:51.343Z,96639.80
2018-02-16T12:55:19.647Z,96636.39
2018-02-16T12:57:47.964Z,96634.97
2018-02-16T13:00:16.291Z,96642.05
2018-02-16T13:02:44.606Z,96639.81
2018-02-16T13:05:12.970Z,96650.91
2018-02-16T13:07:41.292Z,96642.80
2018-02-16T13:10:09.602Z,96644.62
2018-02-16T13:12:37.915Z,96638.61
2018-02-16T13:15:06.238Z,96639.54
2018-02-16T13:17:34.545Z,96641.07
2018-02-16T13:20:02.886Z,96648.72
2018-02-16T13:22:31.197Z,96645.89
2018-02-16T13:24:59.510Z,96644.76
2018-02-16T13:27:27.842Z,96643.08
2018-02-16T13:29:56.175Z,96641.98
2018-02-16T13:32:24.531Z,96647.49
2018-02-16T13:34:52.843Z,96643.39
2018-02-16T13:37:21.187Z,96641.67
2018-02-16T13:39:49.523Z,96641.66
2018-02-16T13:42:17.852Z,96638.16
2018-02-16T13:44:46.183Z,96643.45
2018-02-16T13:47:14.534Z,96634.66
2018-02-16T13:49:42.834Z,96640.44
2018-02-16T13:52:11.316Z,96644.56
2018-02-16T13:54:39.614Z,96648.91
2018-02-16T13:57:07.943Z,96651.11
2018-02-16T13:59:36.270Z,96648.28
2018-02-16T14:02:04.596Z,96653.58
2018-02-16T14:04:32.939Z,96651.97
2018-02-16T14:07:01.262Z,96652.72
2018-02-16T14:09:29.747Z,96659.25
2018-02-16T14:11:58.050Z,96656.20
2018-02-16T14:14:26.402Z,96652.37
2018-02-16T14:16:54.709Z,96653.61
2018-02-16T14:19:23.059Z,96663.11
2018-02-16T14:21:51.379Z,96662.41
2018-02-16T14:24:19.735Z,96652.59
2018-02-16T14:26:48.050Z,96658.98
2018-02-16T14:29:16.403Z,96660.66
2018-02-16T14:31:44.728Z,96654.48
2018-02-16T14:34:13.084Z,96650.30
2018-02-16T14:36:41.428Z,96647.03
2018-02-16T14:39:09.744Z,96646.11
2018-02-16T14:41:38.082Z,96644.81
2018-02-16T14:44:06.403Z,96645.53
2018-02-16T14:46:34.805Z,96647.32
2018-02-16T14:49:03.172Z,96639.44
2018-02-16T14:51:31.510Z,96655.11
2018-02-16T14:53:59.842Z,96645.27
2018-02-16T14:56:28.187Z,96645.41
2018-02-16T14:58:56.511Z,96652.29
2018-02-16T15:01:24.896Z,96645.75
2018-02-16T15:03:53.279Z,96647.27
2018-02-16T15:06:21.571Z,96653.40
2018-02-16T15:08:49.921Z,96654.67
2018-02-16T15:11:18.262Z,96661.19
2018-02-16T15:13:46.618Z,96659.91
2018-02-16T15:16:15.003Z,96664.23
2018-02-16T15:18:43.354Z,96662.27
2018-02-16T15:21:11.694Z,96666.89
2018-02-16T15:23:40.046Z,96667.17
2018-02-16T15:26:08.367Z,96675.55
2018-02-16T15:28:36.688Z,96675.50
2018-02-16T15:31:05.057Z,96670.39
2018-02-16T15:33:33.373Z,96670.81
2018-02-16T15:36:01.708Z,96670.13
2018-02-16T15:38:30.028Z,96662.26
2018-02-16T15:40:58.379Z,96664.33
2018-02-16T15:43:26.713Z,96666.23
2018-02-16T15:45:55.073Z,96661.17
2018-02-16T15:48:23.390Z,96662.67
2018-02-16T15:50:51.722Z,96656.89
2018-02-16T15:53:20.070Z,96642.97
2018-02-16T15:55:48.386Z,96646.00
2018-02-16T15:58:16.728Z,96648.02
2018-02-16T16:00:45.064Z,96644.59
2018-02-16T16:03:13.416Z,96649.43
2018-02-16T16:05:41.747Z,96650.77
2018-02-16T16:08:10.064Z,96645.66
2018-02-16T16:10:38.431Z,96652.81
2018-02-16T16:13:06.789Z,96649.06
2018-02-16T16:15:35.123Z,96647.89
2018-02-16T16:18:03.459Z,96653.18
2018-02-16T16:20:31.821Z,96658.46
2018-02-16T16:23:00.147Z,96655.11
2018-02-16T16:25:28.504Z,96658.08
2018-02-16T16:27:56.835Z,96657.80
2018-02-16T16:30:25.162Z,96653.21
2018-02-16T16:32:53.502Z,96658.08
2018-02-16T16:35:21.882Z,96661.39
2018-02-16T16:37:50.194Z,96664.18
2018-02-16T16:40:18.524Z,96664.08
2018-02-16T16:42:46.865Z,96656.73
2018-02-16T16:45:15.190Z,96660.70
2018-02-16T16:47:43.529Z,96667.31
2018-02-16T16:50:11.847Z,96673.77
2018-02-16T16:52:40.195Z,96677.29
2018-02-16T16:55:08.516Z,96685.08
2018-02-16T16:57:36.865Z,96681.05
2018-02-16T17:00:05.219Z,96677.60
2018-02-16T17:02:33.547Z,96677.47
2018-02-16T17:05:02.003Z,96681.50
2018-02-16T17:07:30.355Z,96687.67
2018-02-16T17:09:58.681Z,96685.77
2018-02-16T17:12:27.020Z,96683.95
2018-02-16T17:14:55.342Z,96685.36
2018-02-16T17:17:23.762Z,96691.64
2018-02-16T17:19:52.090Z,96686.60
2018-02-16T17:22:20.406Z,96689.88
2018-02-16T17:24:48.746Z,96686.05
2018-02-16T17:27:17.065Z,96684.13
2018-02-16T17:29:45.441Z,96689.98
2018-02-16T17:32:13.888Z,96692.02
2018-02-16T17:34:42.233Z,96692.16
2018-02-16T17:37:10.563Z,96699.70
2018-02-16T17:39:38.915Z,96689.56
2018-02-16T17:42:07.225Z,96688.67
2018-02-16T17:44:35.576Z,96688.91
2018-02-16T17:47:03.886Z,96681.34
2018-02-16T17:49:32.250Z,96677.73
2018-02-16T17:52:00.582Z,96673.34
2018-02-16T17:54:28.910Z,96673.89
2018-02-16T17:56:57.273Z,96674.89
2018-02-16T17:59:25.594Z,96674.95
2018-02-16T18:01:53.952Z,96678.92
2018-02-16T18:04:22.268Z,96682.48
2018-02-16T18:06:50.613Z,96682.17
2018-02-16T18:09:18.935Z,96684.56
2018-02-16T18:11:47.313Z,96690.25
2018-02-16T18:14:15.645Z,96689.83
2018-02-16T18:16:43.991Z,96692.28
2018-02-16T18:19:12.327Z,96696.02
2018-02-16T18:21:40.678Z,96696.13
2018-02-16T18:24:09.048Z,96695.63
2018-02-16T18:26:37.816Z,96695.78
2018-02-16T18:29:06.140Z,96701.13
2018-02-16T18:31:34.482Z,96700.70
2018-02-16T18:34:02.842Z,96702.33
2018-02-16T18:36:31.182Z,96696.20
2018-02-16T18:38:59.512Z,96686.17
2018-02-16T18:41:27.831Z,96689.14
2018-02-16T18:43:56.232Z,96695.27
2018-02-16T18:46:24.504Z,96690.28
2018-02-16T18:48:52.873Z,96686.63
2018-02-16T18:51:21.199Z,96684.35
2018-02-16T18:53:49.511Z,96681.87
2018-02-16T18:56:17.876Z,96674.00
2018-02-16T18:58:46.192Z,96675.40
2018-02-16T19:01:14.546Z,96674.80
2018-02-16T19:03:42.864Z,96671.97
2018-02-16T19:06:11.240Z,96678.01
2018-02-16T19:08:39.548Z,96675.53
2018-02-16T19:11:07.878Z,96667.25
2018-02-16T19:13:36.208Z,96672.51
2018-02-16T19:16:04.554Z,96668.20
2018-02-16T19:18:32.880Z,96659.58
2018-02-16T19:21:01.218Z,96654.41
2018-02-16T19:23:29.568Z,96655.41
2018-02-16T19:25:57.915Z,96652.67
2018-02-16T19:28:26.253Z,96656.44
2018-02-16T19:30:54.576Z,96652.80
2018-02-16T19:33:22.921Z,96650.63
2018-02-16T19:35:51.229Z,96653.98
2018-02-16T19:38:19.579Z,96648.09
2018-02-16T19:40:47.914Z,96642.45
2018-02-16T19:43:16.255Z,96643.64
2018-02-16T19:45:44.593Z,96646.07
2018-02-16T19:48:12.907Z,96647.37
2018-02-16T19:50:41.274Z,96643.80
2018-02-16T19:53:09.606Z,96644.66
2018-02-16T19:55:38.308Z,96634.17
2018-02-16T19:58:06.613Z,96633.95
2018-02-16T20:00:34.986Z,96640.66
2018-02-16T20:03:03.310Z,96644.56
2018-02-16T20:05:31.714Z,96641.67
2018-02-16T20:08:00.188Z,96642.19
2018-02-16T20:10:28.503Z,96633.64
2018-02-16T20:12:56.853Z,96629.98
2018-02-16T20:15:25.180Z,96632.28
2018-02-16T20:17:53.563Z,96629.80
2018-02-16T20:20:21.887Z,96631.93
2018-02-16T20:22:50.231Z,96635.17
2018-02-16T20:25:18.575Z,96630.35
2018-02-16T20:27:46.919Z,96620.38
2018-02-16T20:30:15.230Z,96613.23
2018-02-16T20:32:43.631Z,96615.39
2018-02-16T20:35:11.946Z,96615.73
2018-02-16T20:37:40.298Z,96615.86
2018-02-16T20:40:08.658Z,96618.67
2018-02-16T20:42:36.986Z,96610.48
2018-02-16T20:45:05.404Z,96612.59
2018-02-16T20:47:33.754Z,96614.56
2018-02-16T20:50:02.092Z,96609.17
2018-02-16T20:52:30.419Z,96609.01
2018-02-16T20:54:58.785Z,96609.47
2018-02-16T20:57:27.115Z,96606.77
2018-02-16T20:59:55.453Z,96607.00
2018-02-16T21:02:23.795Z,96606.98
2018-02-16T21:04:52.128Z,96603.73
2018-02-16T21:07:20.523Z,96599.95
2018-02-16T21:09:48.847Z,96599.54
2018-02-16T21:12:17.178Z,96591.10
2018-02-16T21:14:45.513Z,96597.41
2018-02-16T21:17:13.838Z,96594.09
2018-02-16T21:19:42.154Z,96592.25
2018-02-16T21:22:10.490Z,96590.12
2018-02-16T21:24:38.809Z,96596.55
2018-02-16T21:27:07.992Z,96590.38
2018-02-16T21:29:36.322Z,96593.25
2018-02-16T21:32:04.657Z,96591.64
2018-02-16T21:34:32.970Z,96595.14
2018-02-16T21:37:01.308Z,96593.01
2018-02-16T21:39:29.690Z,96584.96
2018-02-16T21:41:58.007Z,96582.73
2018-02-16T21:44:26.343Z,96582.86
2018-02-16T21:46:54.669Z,96584.17
2018-02-16T21:49:23.004Z,96581.42
2018-02-16T21:51:51.341Z,96585.75
2018-02-16T21:54:19.648Z,96584.42
2018-02-16T21:56:47.981Z,96590.59
2018-02-16T21:59:16.343Z,96584.88
2018-02-16T22:01:44.663Z,96587.70
2018-02-16T22:04:12.990Z,96582.66
2018-02-16T22:06:41.346Z,96574.36
2018-02-16T22:09:09.667Z,96582.85
2018-02-16T22:11:38.290Z,96577.03
2018-02-16T22:14:06.603Z,96576.30
2018-02-16T22:16:34.991Z,96569.75
2018-02-16T22:19:03.312Z,96564.80
2018-02-16T22:21:31.649Z,96562.09
2018-02-16T22:24:00.070Z,96564.45
2018-02-16T22:26:28.390Z,96564.73
2018-02-16T22:28:56.736Z,96564.98
2018-02-16T22:31:25.072Z,96559.12
2018-02-16T22:33:53.437Z,96554.68
2018-02-16T22:36:21.823Z,96557.41
2018-02-16T22:38:50.241Z,96546.60
2018-02-16T22:41:18.578Z,96546.86
2018-02-16T22:43:46.908Z,96547.39
2018-02-16T22:46:15.254Z,96546.44
2018-02-16T22:48:43.576Z,96548.41
2018-02-16T22:51:11.934Z,96541.13
2018-02-16T22:53:40.266Z,96546.92
2018-02-16T22:56:08.738Z,96552.20
2018-02-16T22:58:37.058Z,96543.33
2018-02-16T23:01:05.390Z,96549.94
2018-02-16T23:03:33.733Z,96544.21
2018-02-16T23:06:02.311Z,96546.28
2018-02-16T23:08:30.679Z,96539.28
2018-02-16T23:10:59.155Z,96551.38
2018-02-16T23:13:27.495Z,96551.88
2018-02-16T23:15:55.852Z,96544.69
2018-02-16T23:18:24.202Z,96550.80
2018-02-16T23:20:52.526Z,96545.92
2018-02-16T23:23:20.895Z,96542.94
2018-02-16T23:25:49.222Z,96540.75
2018-02-16T23:28:17.540Z,96536.33
2018-02-16T23:30:45.918Z,96535.98
2018-02-16T23:33:14.254Z,96550.95
2018-02-16T23:35:42.602Z,96546.47
2018-02-16T23:38:10.947Z,96552.01
2018-02-16T23:40:39.295Z,96549.78
2018-02-16T23:43:07.560Z,96550.00
2018-02-16T23:45:35.906Z,96550.00
2018-02-16T23:48:04.226Z,96552.42
2018-02-16T23:50:32.586Z,96543.48
2018-02-16T23:53:00.918Z,96535.84
2018-02-16T23:55:29.269Z,96542.91
2018-02-16T23:57:57.634Z,96536.33
